Wiconisco, Pennsylvania
Current Conditions -  °F | °C
As of 11:58 AM on Friday 24 Oct 2014 (Local Time) from KMUI Reporting Station
Clear Clear  
Wind Chill: 17°   Ceiling: Unl
Heat Index: 17°   Visibility: 10mi
Dew Point:   Wind: 16mph
Humidity: 49%   Direction: 320°NW
Pressure: 29.92"   Gusts: 24mph
Location:  40.57°N, 76.69°W
Report Text: KMUI 241558Z AUTO 32014G21KT 10SM CLR 17/06 A2992 RMK AO2 SLP134 T01680061 $
Loading
Personal Weather Stations






























Interactive Weather Map
Tropical Storm Tracking
New forecast layout! Learn more

10-Day Weather Forecast

Advertisements
Track Severe Weather on mobile